sensor_id;sensor_type;location;lat;lon;timestamp;pressure;altitude;pressure_sealevel;temperature;humidity
79586;BME280;69054;50.866;4.636;2023-07-31T00:01:10;100875.22;;;15.33;100.00
79586;BME280;69054;50.866;4.636;2023-07-31T00:03:35;100868.66;;;15.34;100.00
79586;BME280;69054;50.866;4.636;2023-07-31T00:06:00;100862.31;;;15.34;100.00
79586;BME280;69054;50.866;4.636;2023-07-31T00:08:26;100863.16;;;15.34;100.00
79586;BME280;69054;50.866;4.636;2023-07-31T00:10:52;100861.44;;;15.33;100.00
79586;BME280;69054;50.866;4.636;2023-07-31T00:13:18;100857.03;;;15.32;100.00
79586;BME280;69054;50.866;4.636;2023-07-31T00:15:43;100861.88;;;15.37;100.00
79586;BME280;69054;50.866;4.636;2023-07-31T00:18:08;100865.81;;;15.41;100.00
79586;BME280;69054;50.866;4.636;2023-07-31T00:20:34;100849.16;;;15.36;100.00
79586;BME280;69054;50.866;4.636;2023-07-31T00:22:59;100845.88;;;15.46;100.00
79586;BME280;69054;50.866;4.636;2023-07-31T00:25:24;100845.88;;;15.46;100.00
79586;BME280;69054;50.866;4.636;2023-07-31T00:27:50;100845.41;;;15.49;100.00
79586;BME280;69054;50.866;4.636;2023-07-31T00:30:15;100838.41;;;15.53;99.63
79586;BME280;69054;50.866;4.636;2023-07-31T00:32:41;100832.28;;;15.51;99.62
79586;BME280;69054;50.866;4.636;2023-07-31T00:35:07;100829.31;;;15.52;99.39
79586;BME280;69054;50.866;4.636;2023-07-31T00:37:32;100839.69;;;15.50;99.67
79586;BME280;69054;50.866;4.636;2023-07-31T00:39:57;100840.47;;;15.57;100.00
79586;BME280;69054;50.866;4.636;2023-07-31T00:42:24;100835.41;;;15.54;99.63
79586;BME280;69054;50.866;4.636;2023-07-31T00:44:49;100826.41;;;15.66;98.54
79586;BME280;69054;50.866;4.636;2023-07-31T00:47:14;100826.19;;;15.67;99.15
79586;BME280;69054;50.866;4.636;2023-07-31T00:49:40;100830.59;;;15.68;98.61
79586;BME280;69054;50.866;4.636;2023-07-31T00:52:06;100830.16;;;15.71;98.06
79586;BME280;69054;50.866;4.636;2023-07-31T00:54:31;100814.25;;;15.73;97.82
79586;BME280;69054;50.866;4.636;2023-07-31T00:56:57;100820.59;;;15.74;97.98
79586;BME280;69054;50.866;4.636;2023-07-31T00:59:22;100809.56;;;15.74;97.67
79586;BME280;69054;50.866;4.636;2023-07-31T06:32:42;100551.13;;;15.40;100.00
79586;BME280;69054;50.866;4.636;2023-07-31T06:35:08;100551.50;;;15.44;100.00
79586;BME280;69054;50.866;4.636;2023-07-31T06:37:34;100552.84;;;15.53;99.84
79586;BME280;69054;50.866;4.636;2023-07-31T06:39:59;100553.22;;;15.57;99.70
79586;BME280;69054;50.866;4.636;2023-07-31T06:42:24;100554.94;;;15.58;98.34
79586;BME280;69054;50.866;4.636;2023-07-31T06:44:50;100559.34;;;15.59;98.68
79586;BME280;69054;50.866;4.636;2023-07-31T06:47:16;100546.19;;;15.61;98.24
79586;BME280;69054;50.866;4.636;2023-07-31T06:49:41;100553.00;;;15.58;99.56
79586;BME280;69054;50.866;4.636;2023-07-31T06:52:06;100539.75;;;15.67;98.74
79586;BME280;69054;50.866;4.636;2023-07-31T06:54:32;100537.47;;;15.76;98.16
79586;BME280;69054;50.866;4.636;2023-07-31T06:56:57;100528.44;;;15.87;95.95
79586;BME280;69054;50.866;4.636;2023-07-31T06:59:23;100520.53;;;16.03;96.21
79586;BME280;69054;50.866;4.636;2023-07-31T07:01:48;100529.66;;;16.15;94.76
79586;BME280;69054;50.866;4.636;2023-07-31T07:04:14;100517.31;;;16.18;95.56
79586;BME280;69054;50.866;4.636;2023-07-31T07:06:39;100513.13;;;16.27;94.88
79586;BME280;69054;50.866;4.636;2023-07-31T07:09:04;100524.25;;;16.32;94.61
79586;BME280;69054;50.866;4.636;2023-07-31T07:11:30;100523.78;;;16.35;94.07
79586;BME280;69054;50.866;4.636;2023-07-31T07:13:56;100529.31;;;16.35;94.65
79586;BME280;69054;50.866;4.636;2023-07-31T07:16:21;100521.88;;;16.36;94.11
79586;BME280;69054;50.866;4.636;2023-07-31T07:18:46;100519.94;;;16.36;94.17
79586;BME280;69054;50.866;4.636;2023-07-31T07:21:12;100529.66;;;16.50;91.86
79586;BME280;69054;50.866;4.636;2023-07-31T07:23:42;100519.06;;;16.59;92.55
79586;BME280;69054;50.866;4.636;2023-07-31T07:26:07;100528.31;;;16.65;91.38
79586;BME280;69054;50.866;4.636;2023-07-31T07:28:32;100531.88;;;16.77;90.87
79586;BME280;69054;50.866;4.636;2023-07-31T07:30:58;100528.28;;;16.89;90.84
79586;BME280;69054;50.866;4.636;2023-07-31T07:33:23;100529.81;;;16.96;91.15
79586;BME280;69054;50.866;4.636;2023-07-31T07:35:49;100532.59;;;16.96;89.57
79586;BME280;69054;50.866;4.636;2023-07-31T07:38:14;100539.09;;;16.90;89.84
79586;BME280;69054;50.866;4.636;2023-07-31T07:40:40;100532.00;;;16.71;90.09
79586;BME280;69054;50.866;4.636;2023-07-31T07:43:06;100536.34;;;16.66;91.04
79586;BME280;69054;50.866;4.636;2023-07-31T07:45:31;100531.44;;;16.68;90.75
79586;BME280;69054;50.866;4.636;2023-07-31T07:47:56;100525.06;;;16.68;90.49
79586;BME280;69054;50.866;4.636;2023-07-31T07:50:23;100517.97;;;16.72;89.57
79586;BME280;69054;50.866;4.636;2023-07-31T07:52:48;100532.72;;;16.78;89.09
79586;BME280;69054;50.866;4.636;2023-07-31T07:55:14;100534.88;;;16.76;89.16
79586;BME280;69054;50.866;4.636;2023-07-31T07:57:39;100542.41;;;16.80;89.80
79586;BME280;69054;50.866;4.636;2023-07-31T08:00:05;100539.41;;;16.82;89.84
79586;BME280;69054;50.866;4.636;2023-07-31T08:02:31;100543.88;;;16.83;89.13
79586;BME280;69054;50.866;4.636;2023-07-31T08:04:56;100531.06;;;16.89;88.41
79586;BME280;69054;50.866;4.636;2023-07-31T08:07:22;100527.22;;;16.90;88.99
79586;BME280;69054;50.866;4.636;2023-07-31T08:09:47;100536.41;;;16.95;88.98
79586;BME280;69054;50.866;4.636;2023-07-31T08:12:12;100540.53;;;16.93;88.48
79586;BME280;69054;50.866;4.636;2023-07-31T08:14:38;100528.63;;;16.92;88.23
79586;BME280;69054;50.866;4.636;2023-07-31T08:17:03;100533.53;;;17.02;88.53
79586;BME280;69054;50.866;4.636;2023-07-31T08:19:29;100532.28;;;17.22;86.04
79586;BME280;69054;50.866;4.636;2023-07-31T08:21:54;100529.09;;;17.30;85.64
79586;BME280;69054;50.866;4.636;2023-07-31T08:24:20;100526.78;;;17.38;86.42
79586;BME280;69054;50.866;4.636;2023-07-31T08:26:45;100523.53;;;17.42;85.91
79586;BME280;69054;50.866;4.636;2023-07-31T08:29:12;100531.16;;;17.23;85.53
79586;BME280;69054;50.866;4.636;2023-07-31T08:31:37;100532.66;;;17.42;84.87
79586;BME280;69054;50.866;4.636;2023-07-31T08:34:02;100528.09;;;17.65;84.54
79586;BME280;69054;50.866;4.636;2023-07-31T08:36:28;100543.28;;;17.79;84.72
79586;BME280;69054;50.866;4.636;2023-07-31T08:38:53;100530.16;;;17.58;84.80
79586;BME280;69054;50.866;4.636;2023-07-31T08:41:18;100537.34;;;17.42;85.35
79586;BME280;69054;50.866;4.636;2023-07-31T08:43:48;100536.66;;;17.34;87.85
79586;BME280;69054;50.866;4.636;2023-07-31T08:46:14;100535.31;;;17.37;87.51
79586;BME280;69054;50.866;4.636;2023-07-31T08:48:43;100539.91;;;17.31;86.83
79586;BME280;69054;50.866;4.636;2023-07-31T08:51:09;100532.28;;;17.22;86.75
79586;BME280;69054;50.866;4.636;2023-07-31T08:53:35;100533.69;;;17.24;87.66
79586;BME280;69054;50.866;4.636;2023-07-31T08:56:00;100524.56;;;17.24;87.28
79586;BME280;69054;50.866;4.636;2023-07-31T08:58:29;100528.59;;;17.04;89.08
79586;BME280;69054;50.866;4.636;2023-07-31T09:00:56;100524.78;;;17.05;88.29
79586;BME280;69054;50.866;4.636;2023-07-31T09:03:23;100528.34;;;17.06;88.61
79586;BME280;69054;50.866;4.636;2023-07-31T09:05:50;100517.00;;;16.90;88.48
79586;BME280;69054;50.866;4.636;2023-07-31T09:08:18;100524.94;;;16.87;89.90
79586;BME280;69054;50.866;4.636;2023-07-31T09:10:45;100531.38;;;16.92;88.88
79586;BME280;69054;50.866;4.636;2023-07-31T09:13:12;100526.00;;;16.97;88.62
79586;BME280;69054;50.866;4.636;2023-07-31T09:15:39;100528.31;;;17.17;87.97
79586;BME280;69054;50.866;4.636;2023-07-31T09:18:05;100529.16;;;17.18;87.40
79586;BME280;69054;50.866;4.636;2023-07-31T09:20:31;100533.56;;;17.31;87.42
79586;BME280;69054;50.866;4.636;2023-07-31T09:23:08;100516.38;;;17.29;88.04
79586;BME280;69054;50.866;4.636;2023-07-31T09:25:34;100525.91;;;17.21;87.68
79586;BME280;69054;50.866;4.636;2023-07-31T09:28:06;100526.38;;;17.18;88.10
79586;BME280;69054;50.866;4.636;2023-07-31T09:30:44;100533.69;;;17.24;88.28
79586;BME280;69054;50.866;4.636;2023-07-31T09:33:10;100512.50;;;17.42;86.88
79586;BME280;69054;50.866;4.636;2023-07-31T09:35:36;100515.97;;;17.66;85.47
79586;BME280;69054;50.866;4.636;2023-07-31T09:38:07;100509.34;;;17.67;85.64
79586;BME280;69054;50.866;4.636;2023-07-31T09:40:35;100501.22;;;17.77;84.89
79586;BME280;69054;50.866;4.636;2023-07-31T09:43:03;100507.81;;;18.05;85.41
79586;BME280;69054;50.866;4.636;2023-07-31T09:45:29;100506.19;;;18.26;83.97
79586;BME280;69054;50.866;4.636;2023-07-31T09:47:56;100500.16;;;18.12;86.33
79586;BME280;69054;50.866;4.636;2023-07-31T09:50:23;100498.00;;;17.97;86.21
79586;BME280;69054;50.866;4.636;2023-07-31T09:52:49;100507.66;;;17.66;88.34
79586;BME280;69054;50.866;4.636;2023-07-31T09:55:15;100501.88;;;17.50;89.36
79586;BME280;69054;50.866;4.636;2023-07-31T09:57:42;100497.00;;;17.41;90.90
79586;BME280;69054;50.866;4.636;2023-07-31T10:00:12;100495.16;;;17.29;90.94
79586;BME280;69054;50.866;4.636;2023-07-31T10:02:39;100508.44;;;17.32;92.33
79586;BME280;69054;50.866;4.636;2023-07-31T10:05:05;100514.44;;;17.12;92.64
79586;BME280;69054;50.866;4.636;2023-07-31T10:07:37;100507.09;;;17.06;93.80
79586;BME280;69054;50.866;4.636;2023-07-31T10:10:04;100496.47;;;17.27;92.60
79586;BME280;69054;50.866;4.636;2023-07-31T10:12:31;100493.50;;;17.62;92.59
79586;BME280;69054;50.866;4.636;2023-07-31T10:14:59;100494.69;;;17.66;91.15
79586;BME280;69054;50.866;4.636;2023-07-31T10:17:25;100485.63;;;17.88;89.59
79586;BME280;69054;50.866;4.636;2023-07-31T10:19:51;100493.09;;;17.70;90.84
79586;BME280;69054;50.866;4.636;2023-07-31T10:22:19;100485.06;;;17.52;91.44
79586;BME280;69054;50.866;4.636;2023-07-31T10:24:46;100488.31;;;17.49;92.95
79586;BME280;69054;50.866;4.636;2023-07-31T10:27:12;100483.38;;;17.68;91.28
79586;BME280;69054;50.866;4.636;2023-07-31T10:29:39;100479.38;;;17.76;91.95
79586;BME280;69054;50.866;4.636;2023-07-31T10:32:06;100482.47;;;18.13;89.96
79586;BME280;69054;50.866;4.636;2023-07-31T10:34:35;100486.69;;;18.38;87.45
79586;BME280;69054;50.866;4.636;2023-07-31T10:40:26;100497.78;;;18.60;86.04
79586;BME280;69054;50.866;4.636;2023-07-31T10:42:54;100485.38;;;18.62;85.62
79586;BME280;69054;50.866;4.636;2023-07-31T10:45:39;100490.69;;;18.86;85.39
79586;BME280;69054;50.866;4.636;2023-07-31T10:48:12;100483.03;;;18.93;84.23
79586;BME280;69054;50.866;4.636;2023-07-31T10:50:48;100497.84;;;18.65;85.65
79586;BME280;69054;50.866;4.636;2023-07-31T10:53:31;100494.63;;;18.51;85.44
79586;BME280;69054;50.866;4.636;2023-07-31T10:56:04;100483.38;;;18.36;86.07
79586;BME280;69054;50.866;4.636;2023-07-31T10:58:30;100484.75;;;18.55;86.27
79586;BME280;69054;50.866;4.636;2023-07-31T11:01:02;100477.00;;;18.57;85.07
79586;BME280;69054;50.866;4.636;2023-07-31T11:03:48;100484.94;;;18.71;84.52
79586;BME280;69054;50.866;4.636;2023-07-31T11:06:15;100465.50;;;19.10;81.78
79586;BME280;69054;50.866;4.636;2023-07-31T11:08:43;100466.31;;;19.38;80.23
79586;BME280;69054;50.866;4.636;2023-07-31T11:11:10;100455.59;;;19.46;80.36
79586;BME280;69054;50.866;4.636;2023-07-31T11:16:10;100471.00;;;19.05;81.76
79586;BME280;69054;50.866;4.636;2023-07-31T11:18:38;100459.91;;;19.05;80.96
79586;BME280;69054;50.866;4.636;2023-07-31T11:21:04;100453.91;;;19.13;80.67
79586;BME280;69054;50.866;4.636;2023-07-31T11:23:30;100456.69;;;19.18;80.34
79586;BME280;69054;50.866;4.636;2023-07-31T11:25:59;100463.41;;;19.22;80.16
79586;BME280;69054;50.866;4.636;2023-07-31T11:28:25;100444.69;;;19.35;79.19
79586;BME280;69054;50.866;4.636;2023-07-31T11:30:50;100434.22;;;19.42;79.10
79586;BME280;69054;50.866;4.636;2023-07-31T11:33:16;100438.00;;;19.63;78.19
79586;BME280;69054;50.866;4.636;2023-07-31T11:35:46;100429.25;;;19.76;77.86
79586;BME280;69054;50.866;4.636;2023-07-31T11:38:23;100431.16;;;19.71;77.83
79586;BME280;69054;50.866;4.636;2023-07-31T11:40:49;100431.34;;;19.91;77.10
79586;BME280;69054;50.866;4.636;2023-07-31T11:43:15;100420.63;;;19.73;77.82
79586;BME280;69054;50.866;4.636;2023-07-31T11:45:46;100428.50;;;19.86;77.79
79586;BME280;69054;50.866;4.636;2023-07-31T11:48:19;100422.03;;;20.08;77.06
79586;BME280;69054;50.866;4.636;2023-07-31T11:50:44;100429.28;;;20.24;76.01
79586;BME280;69054;50.866;4.636;2023-07-31T11:53:11;100429.63;;;20.28;76.41
79586;BME280;69054;50.866;4.636;2023-07-31T11:55:38;100427.75;;;19.96;76.65
79586;BME280;69054;50.866;4.636;2023-07-31T11:58:04;100419.78;;;19.72;77.56
79586;BME280;69054;50.866;4.636;2023-07-31T12:00:30;100418.38;;;19.69;77.68
79586;BME280;69054;50.866;4.636;2023-07-31T12:02:56;100407.25;;;19.59;77.49
79586;BME280;69054;50.866;4.636;2023-07-31T12:05:22;100416.66;;;19.63;77.86
79586;BME280;69054;50.866;4.636;2023-07-31T12:07:53;100409.25;;;19.69;77.80
79586;BME280;69054;50.866;4.636;2023-07-31T12:10:26;100392.25;;;19.60;78.31
79586;BME280;69054;50.866;4.636;2023-07-31T12:13:12;100387.84;;;19.59;77.59
79586;BME280;69054;50.866;4.636;2023-07-31T12:15:44;100381.75;;;19.62;77.45
79586;BME280;69054;50.866;4.636;2023-07-31T12:18:14;100379.16;;;19.83;77.42
79586;BME280;69054;50.866;4.636;2023-07-31T12:20:44;100367.59;;;19.96;77.04
79586;BME280;69054;50.866;4.636;2023-07-31T12:23:19;100365.50;;;20.24;75.66
79586;BME280;69054;50.866;4.636;2023-07-31T12:28:40;100374.88;;;20.13;76.16
79586;BME280;69054;50.866;4.636;2023-07-31T12:31:07;100380.81;;;19.84;76.85
79586;BME280;69054;50.866;4.636;2023-07-31T12:33:34;100379.69;;;19.80;77.64
79586;BME280;69054;50.866;4.636;2023-07-31T12:36:04;100375.00;;;19.85;77.34
79586;BME280;69054;50.866;4.636;2023-07-31T12:38:30;100373.59;;;19.83;77.04
79586;BME280;69054;50.866;4.636;2023-07-31T12:40:56;100372.84;;;19.93;76.93
79586;BME280;69054;50.866;4.636;2023-07-31T12:43:21;100366.25;;;20.04;76.11
79586;BME280;69054;50.866;4.636;2023-07-31T12:45:47;100362.84;;;19.92;76.53
79586;BME280;69054;50.866;4.636;2023-07-31T12:48:13;100350.34;;;19.84;76.46
79586;BME280;69054;50.866;4.636;2023-07-31T12:50:38;100356.38;;;19.76;76.75
79586;BME280;69054;50.866;4.636;2023-07-31T12:53:04;100363.81;;;19.75;77.10
79586;BME280;69054;50.866;4.636;2023-07-31T12:55:30;100364.06;;;19.68;78.42
79586;BME280;69054;50.866;4.636;2023-07-31T12:57:55;100354.38;;;19.71;78.35
79586;BME280;69054;50.866;4.636;2023-07-31T13:00:22;100362.75;;;19.44;80.01
79586;BME280;69054;50.866;4.636;2023-07-31T13:02:47;100373.59;;;19.13;82.68
79586;BME280;69054;50.866;4.636;2023-07-31T13:05:15;100372.78;;;19.12;83.00
79586;BME280;69054;50.866;4.636;2023-07-31T13:07:41;100366.06;;;19.08;83.55
79586;BME280;69054;50.866;4.636;2023-07-31T13:10:07;100368.53;;;19.05;83.43
79586;BME280;69054;50.866;4.636;2023-07-31T13:12:33;100359.78;;;19.18;81.70
79586;BME280;69054;50.866;4.636;2023-07-31T13:14:59;100359.22;;;19.16;80.79
79586;BME280;69054;50.866;4.636;2023-07-31T13:17:24;100362.22;;;19.09;81.33
79586;BME280;69054;50.866;4.636;2023-07-31T13:19:50;100354.09;;;19.03;82.02
79586;BME280;69054;50.866;4.636;2023-07-31T13:22:15;100365.94;;;18.93;83.03
79586;BME280;69054;50.866;4.636;2023-07-31T13:24:41;100364.50;;;18.90;82.93
79586;BME280;69054;50.866;4.636;2023-07-31T13:27:06;100360.13;;;18.94;83.34
79586;BME280;69054;50.866;4.636;2023-07-31T13:29:32;100368.78;;;18.76;84.62
79586;BME280;69054;50.866;4.636;2023-07-31T13:31:57;100364.81;;;18.44;86.79
79586;BME280;69054;50.866;4.636;2023-07-31T13:34:23;100375.88;;;18.22;88.62
79586;BME280;69054;50.866;4.636;2023-07-31T13:36:48;100366.94;;;17.93;90.47
79586;BME280;69054;50.866;4.636;2023-07-31T13:39:14;100359.72;;;17.75;91.32
79586;BME280;69054;50.866;4.636;2023-07-31T13:41:39;100345.25;;;17.68;92.31
79586;BME280;69054;50.866;4.636;2023-07-31T13:44:04;100349.53;;;17.59;93.77
79586;BME280;69054;50.866;4.636;2023-07-31T13:46:30;100352.38;;;17.47;94.66
79586;BME280;69054;50.866;4.636;2023-07-31T13:48:56;100343.59;;;17.33;95.35
79586;BME280;69054;50.866;4.636;2023-07-31T13:51:21;100335.50;;;17.26;96.63
79586;BME280;69054;50.866;4.636;2023-07-31T13:53:47;100340.91;;;17.21;97.06
79586;BME280;69054;50.866;4.636;2023-07-31T13:56:13;100334.00;;;17.18;97.78
79586;BME280;69054;50.866;4.636;2023-07-31T13:58:38;100343.44;;;17.23;96.87
79586;BME280;69054;50.866;4.636;2023-07-31T14:01:04;100337.09;;;17.22;97.82
79586;BME280;69054;50.866;4.636;2023-07-31T14:03:30;100349.72;;;17.18;97.45
79586;BME280;69054;50.866;4.636;2023-07-31T14:05:55;100344.69;;;17.15;98.67
79586;BME280;69054;50.866;4.636;2023-07-31T14:08:21;100347.13;;;17.11;97.87
79586;BME280;69054;50.866;4.636;2023-07-31T14:10:46;100347.00;;;17.06;98.81
79586;BME280;69054;50.866;4.636;2023-07-31T14:13:12;100345.13;;;17.07;98.94
79586;BME280;69054;50.866;4.636;2023-07-31T14:15:37;100339.59;;;17.07;98.96
79586;BME280;69054;50.866;4.636;2023-07-31T14:18:03;100324.38;;;17.04;98.68
79586;BME280;69054;50.866;4.636;2023-07-31T14:20:29;100334.81;;;17.02;99.21
79586;BME280;69054;50.866;4.636;2023-07-31T14:22:55;100334.22;;;17.00;99.22
79586;BME280;69054;50.866;4.636;2023-07-31T14:25:20;100322.19;;;17.06;99.38
79586;BME280;69054;50.866;4.636;2023-07-31T14:27:46;100332.63;;;17.04;99.74
79586;BME280;69054;50.866;4.636;2023-07-31T14:30:11;100324.63;;;17.02;99.53
79586;BME280;69054;50.866;4.636;2023-07-31T14:32:37;100302.03;;;17.06;100.00
79586;BME280;69054;50.866;4.636;2023-07-31T14:35:03;100293.34;;;17.14;98.89
79586;BME280;69054;50.866;4.636;2023-07-31T14:37:36;100295.66;;;17.22;98.66
79586;BME280;69054;50.866;4.636;2023-07-31T14:40:03;100279.94;;;17.23;98.22
79586;BME280;69054;50.866;4.636;2023-07-31T14:42:28;100307.47;;;17.17;99.32
79586;BME280;69054;50.866;4.636;2023-07-31T14:44:53;100299.19;;;17.17;98.80
79586;BME280;69054;50.866;4.636;2023-07-31T14:47:19;100292.34;;;17.20;98.82
79586;BME280;69054;50.866;4.636;2023-07-31T14:49:44;100300.88;;;17.18;99.18
79586;BME280;69054;50.866;4.636;2023-07-31T14:52:10;100292.50;;;17.13;98.10
79586;BME280;69054;50.866;4.636;2023-07-31T14:54:35;100294.31;;;17.08;100.00
79586;BME280;69054;50.866;4.636;2023-07-31T14:57:01;100293.50;;;17.07;99.79
79586;BME280;69054;50.866;4.636;2023-07-31T14:59:26;100289.91;;;17.07;100.00
79586;BME280;69054;50.866;4.636;2023-07-31T15:01:52;100282.13;;;17.03;100.00
79586;BME280;69054;50.866;4.636;2023-07-31T15:04:18;100272.75;;;17.05;100.00
79586;BME280;69054;50.866;4.636;2023-07-31T15:06:43;100273.09;;;17.08;100.00
79586;BME280;69054;50.866;4.636;2023-07-31T15:09:08;100255.03;;;17.17;100.00
79586;BME280;69054;50.866;4.636;2023-07-31T15:11:34;100256.72;;;17.18;100.00
79586;BME280;69054;50.866;4.636;2023-07-31T15:13:59;100257.38;;;17.09;100.00
79586;BME280;69054;50.866;4.636;2023-07-31T15:16:25;100246.00;;;17.05;100.00
79586;BME280;69054;50.866;4.636;2023-07-31T15:18:50;100234.28;;;16.98;100.00
79586;BME280;69054;50.866;4.636;2023-07-31T15:21:15;100243.91;;;16.95;100.00
79586;BME280;69054;50.866;4.636;2023-07-31T15:23:41;100230.47;;;16.99;100.00
79586;BME280;69054;50.866;4.636;2023-07-31T15:26:06;100215.03;;;17.03;100.00
79586;BME280;69054;50.866;4.636;2023-07-31T15:28:32;100220.25;;;16.99;100.00
79586;BME280;69054;50.866;4.636;2023-07-31T15:30:59;100218.06;;;17.01;100.00
79586;BME280;69054;50.866;4.636;2023-07-31T15:33:25;100217.81;;;17.03;100.00
79586;BME280;69054;50.866;4.636;2023-07-31T15:35:50;100207.38;;;17.05;100.00
79586;BME280;69054;50.866;4.636;2023-07-31T15:38:17;100207.53;;;16.98;100.00
79586;BME280;69054;50.866;4.636;2023-07-31T15:40:42;100198.84;;;16.90;100.00
79586;BME280;69054;50.866;4.636;2023-07-31T15:43:07;100193.91;;;16.92;100.00
79586;BME280;69054;50.866;4.636;2023-07-31T15:45:33;100193.41;;;16.95;100.00
79586;BME280;69054;50.866;4.636;2023-07-31T15:47:58;100190.06;;;16.93;100.00
79586;BME280;69054;50.866;4.636;2023-07-31T15:50:24;100187.81;;;16.90;100.00
79586;BME280;69054;50.866;4.636;2023-07-31T15:52:49;100170.16;;;16.91;100.00
79586;BME280;69054;50.866;4.636;2023-07-31T15:55:15;100179.03;;;16.93;100.00
79586;BME280;69054;50.866;4.636;2023-07-31T15:57:40;100173.78;;;16.91;100.00
79586;BME280;69054;50.866;4.636;2023-07-31T16:00:06;100178.69;;;16.89;100.00
79586;BME280;69054;50.866;4.636;2023-07-31T16:02:34;100176.53;;;16.91;100.00
79586;BME280;69054;50.866;4.636;2023-07-31T16:04:59;100170.41;;;16.89;100.00
79586;BME280;69054;50.866;4.636;2023-07-31T16:07:25;100171.25;;;16.90;100.00
79586;BME280;69054;50.866;4.636;2023-07-31T16:09:52;100175.56;;;16.85;100.00
79586;BME280;69054;50.866;4.636;2023-07-31T16:12:17;100169.13;;;16.80;100.00
79586;BME280;69054;50.866;4.636;2023-07-31T16:14:42;100161.03;;;16.73;100.00
79586;BME280;69054;50.866;4.636;2023-07-31T16:17:08;100163.19;;;16.71;100.00
79586;BME280;69054;50.866;4.636;2023-07-31T16:19:33;100157.69;;;16.71;100.00
79586;BME280;69054;50.866;4.636;2023-07-31T16:21:58;100153.84;;;16.72;100.00
79586;BME280;69054;50.866;4.636;2023-07-31T16:24:24;100147.06;;;16.80;100.00
79586;BME280;69054;50.866;4.636;2023-07-31T16:26:49;100138.03;;;16.84;100.00
79586;BME280;69054;50.866;4.636;2023-07-31T16:29:15;100139.09;;;16.83;100.00
79586;BME280;69054;50.866;4.636;2023-07-31T16:31:40;100133.97;;;16.87;100.00
79586;BME280;69054;50.866;4.636;2023-07-31T16:34:05;100122.44;;;16.90;100.00
79586;BME280;69054;50.866;4.636;2023-07-31T16:36:31;100116.09;;;16.90;100.00
79586;BME280;69054;50.866;4.636;2023-07-31T16:38:56;100119.41;;;16.92;100.00
79586;BME280;69054;50.866;4.636;2023-07-31T16:41:21;100113.88;;;16.92;100.00
79586;BME280;69054;50.866;4.636;2023-07-31T16:43:49;100117.72;;;16.91;100.00
79586;BME280;69054;50.866;4.636;2023-07-31T16:46:14;100112.47;;;16.89;100.00
79586;BME280;69054;50.866;4.636;2023-07-31T16:48:39;100092.22;;;16.83;100.00
79586;BME280;69054;50.866;4.636;2023-07-31T16:51:05;100075.59;;;16.78;100.00
79586;BME280;69054;50.866;4.636;2023-07-31T16:53:30;100077.28;;;16.79;100.00
79586;BME280;69054;50.866;4.636;2023-07-31T16:55:56;100081.09;;;16.78;100.00
79586;BME280;69054;50.866;4.636;2023-07-31T16:58:23;100089.97;;;16.80;100.00
79586;BME280;69054;50.866;4.636;2023-07-31T17:00:49;100087.97;;;16.76;100.00
79586;BME280;69054;50.866;4.636;2023-07-31T17:03:14;100083.31;;;16.76;100.00
79586;BME280;69054;50.866;4.636;2023-07-31T17:05:39;100071.16;;;16.77;100.00
79586;BME280;69054;50.866;4.636;2023-07-31T17:08:05;100069.56;;;16.81;100.00
79586;BME280;69054;50.866;4.636;2023-07-31T17:10:30;100075.91;;;16.82;100.00
79586;BME280;69054;50.866;4.636;2023-07-31T17:12:55;100075.91;;;16.82;100.00
79586;BME280;69054;50.866;4.636;2023-07-31T17:15:21;100063.22;;;16.81;100.00
79586;BME280;69054;50.866;4.636;2023-07-31T17:17:51;100060.72;;;16.79;100.00
79586;BME280;69054;50.866;4.636;2023-07-31T17:20:17;100064.63;;;16.83;100.00
79586;BME280;69054;50.866;4.636;2023-07-31T17:22:42;100055.78;;;16.81;100.00
79586;BME280;69054;50.866;4.636;2023-07-31T17:25:09;100058.03;;;16.84;100.00
79586;BME280;69054;50.866;4.636;2023-07-31T17:27:35;100067.13;;;16.85;100.00
79586;BME280;69054;50.866;4.636;2023-07-31T17:30:00;100061.41;;;16.87;100.00
79586;BME280;69054;50.866;4.636;2023-07-31T17:32:25;100055.91;;;16.87;100.00
79586;BME280;69054;50.866;4.636;2023-07-31T17:34:51;100044.34;;;16.90;100.00
79586;BME280;69054;50.866;4.636;2023-07-31T17:37:17;100048.50;;;16.92;100.00
79586;BME280;69054;50.866;4.636;2023-07-31T17:39:42;100049.91;;;16.95;100.00
79586;BME280;69054;50.866;4.636;2023-07-31T17:42:07;100055.44;;;16.95;100.00
79586;BME280;69054;50.866;4.636;2023-07-31T17:44:33;100051.84;;;16.94;100.00
79586;BME280;69054;50.866;4.636;2023-07-31T17:46:58;100043.31;;;16.96;100.00
79586;BME280;69054;50.866;4.636;2023-07-31T17:49:24;100042.72;;;16.94;100.00
79586;BME280;69054;50.866;4.636;2023-07-31T17:51:49;100044.97;;;16.97;100.00
79586;BME280;69054;50.866;4.636;2023-07-31T17:54:15;100046.06;;;16.96;100.00
79586;BME280;69054;50.866;4.636;2023-07-31T17:56:40;100049.66;;;16.96;100.00
79586;BME280;69054;50.866;4.636;2023-07-31T17:59:06;100052.97;;;16.98;100.00
79586;BME280;69054;50.866;4.636;2023-07-31T18:01:31;100045.47;;;16.94;100.00
79586;BME280;69054;50.866;4.636;2023-07-31T18:03:57;100034.44;;;16.94;100.00
79586;BME280;69054;50.866;4.636;2023-07-31T18:06:22;100031.13;;;16.92;100.00
79586;BME280;69054;50.866;4.636;2023-07-31T18:08:48;100012.97;;;16.96;100.00
79586;BME280;69054;50.866;4.636;2023-07-31T18:11:13;99994.41;;;16.91;100.00
79586;BME280;69054;50.866;4.636;2023-07-31T18:13:39;99970.94;;;16.89;100.00
79586;BME280;69054;50.866;4.636;2023-07-31T18:16:05;99951.34;;;16.90;100.00
79586;BME280;69054;50.866;4.636;2023-07-31T18:18:30;99904.34;;;16.85;100.00
79586;BME280;69054;50.866;4.636;2023-07-31T18:20:56;99825.72;;;16.82;100.00
79586;BME280;69054;50.866;4.636;2023-07-31T18:23:21;99846.38;;;16.80;100.00